Time;durP1;ratioP1;P1;durP2;ratioP2;P2;SDS_P1;SDS_P2;PMS_P1;PMS_P2;Temp;Humidity;BMP_temperature;BMP_pressure;BME280_temperature;BME280_humidity;BME280_pressure;Samples;Min_cycle;Max_cycle;Signal;HPM_P1;HPM_P2
2023/06/03 00:02:20;;;;;;;3.90;1.60;;;;;;;7.91;51.23;100689.06;103399;1257;107765;-72
2023/06/03 00:04:48;;;;;;;6.30;1.70;;;;;;;7.89;51.34;100686.13;103414;1257;96438;-71
2023/06/03 00:07:16;;;;;;;6.40;1.80;;;;;;;7.88;51.65;100689.42;103269;1254;136845;-72
2023/06/03 00:09:43;;;;;;;5.10;1.80;;;;;;;7.87;51.70;100688.23;103375;1254;106492;-72
2023/06/03 00:12:11;;;;;;;3.30;1.30;;;;;;;7.86;51.81;100690.33;103332;1254;140491;-71
2023/06/03 00:14:38;;;;;;;6.10;2.00;;;;;;;7.84;51.95;100689.14;103370;1256;108176;-72
2023/06/03 00:17:11;;;;;;;4.30;1.60;;;;;;;7.83;51.98;100690.38;103325;1254;96421;-71
2023/06/03 00:19:48;;;;;;;3.50;1.70;;;;;;;7.81;52.36;100693.70;103306;1257;136947;-72
2023/06/03 00:22:36;;;;;;;6.10;1.80;;;;;;;7.78;52.39;100694.95;103372;1254;107071;-72
2023/06/03 00:25:11;;;;;;;4.40;1.60;;;;;;;7.77;52.66;100692.38;103326;1252;138978;-71
2023/06/03 00:27:39;;;;;;;3.90;1.70;;;;;;;7.74;52.53;100693.11;104006;1253;108607;-71
2023/06/03 00:30:10;;;;;;;4.10;1.70;;;;;;;7.71;52.76;100690.20;103366;1253;137947;-72
2023/06/03 00:32:38;;;;;;;3.80;1.70;;;;;;;7.70;53.07;100691.77;103307;1254;109047;-71
2023/06/03 00:35:06;;;;;;;3.40;1.60;;;;;;;7.69;53.13;100694.55;103364;1256;107790;-72
2023/06/03 00:37:36;;;;;;;4.80;1.50;;;;;;;7.66;53.17;100695.79;103301;1255;137602;-72
2023/06/03 00:40:04;;;;;;;4.00;1.30;;;;;;;7.64;53.41;100698.44;103061;1256;357260;-72
2023/06/03 00:42:41;;;;;;;5.90;1.30;;;;;;;7.62;53.40;100698.29;103260;1254;137263;-71
2023/06/03 00:45:20;;;;;;;4.60;1.60;;;;;;;7.59;53.45;100697.30;103971;1253;109974;-72
2023/06/03 00:47:48;;;;;;;3.40;1.80;;;;;;;7.55;53.69;100700.28;103507;1254;108236;-73
2023/06/03 00:50:16;;;;;;;2.80;1.40;;;;;;;7.50;53.71;100700.33;103635;1254;96477;-72
2023/06/03 00:52:44;;;;;;;4.40;1.40;;;;;;;7.47;54.06;100698.11;103426;1254;107714;-72
2023/06/03 00:55:32;;;;;;;3.50;1.50;;;;;;;7.43;54.12;100699.74;103281;1253;136990;-72
2023/06/03 00:58:10;;;;;;;3.20;1.70;;;;;;;7.38;54.21;100703.95;103483;1253;110086;-72
2023/06/03 01:00:38;;;;;;;2.40;1.60;;;;;;;7.32;54.31;100706.26;103214;1257;137042;-72
2023/06/03 01:03:19;;;;;;;4.80;1.70;;;;;;;7.26;54.63;100708.05;103378;1256;96943;-72
2023/06/03 01:05:54;;;;;;;6.70;1.60;;;;;;;7.20;54.62;100715.40;103428;1256;107823;-72
2023/06/03 01:08:33;;;;;;;2.90;2.10;;;;;;;7.15;54.78;100714.04;103361;1255;96527;-72
2023/06/03 01:11:30;;;;;;;6.20;1.90;;;;;;;7.10;54.91;100718.95;103403;1253;111519;-71
2023/06/03 01:14:08;;;;;;;7.40;1.70;;;;;;;7.08;54.98;100716.56;103320;1254;137920;-73
2023/06/03 01:16:38;;;;;;;3.40;1.70;;;;;;;7.05;55.14;100714.52;103457;1254;96427;-73
2023/06/03 01:19:17;;;;;;;4.40;2.10;;;;;;;7.01;55.21;100715.42;103309;1253;137769;-73
2023/06/03 01:21:50;;;;;;;6.10;2.20;;;;;;;6.98;55.30;100719.75;103437;1254;96341;-73
2023/06/03 01:24:24;;;;;;;5.00;1.90;;;;;;;6.95;55.24;100720.30;103239;1252;138542;-73
2023/06/03 01:27:12;;;;;;;3.20;1.90;;;;;;;6.92;55.80;100726.58;103395;1254;109787;-73
2023/06/03 01:29:41;;;;;;;7.00;1.90;;;;;;;6.89;55.53;100728.33;103514;1253;98197;-73
2023/06/03 01:32:11;;;;;;;4.30;2.00;;;;;;;6.85;55.88;100733.21;103279;1255;137437;-72
2023/06/03 01:34:50;;;;;;;3.90;2.00;;;;;;;6.81;55.93;100732.19;103503;1253;96449;-71
2023/06/03 01:37:21;;;;;;;5.20;2.00;;;;;;;6.76;56.03;100732.06;103340;1254;137638;-73
2023/06/03 01:39:51;;;;;;;4.40;2.20;;;;;;;6.71;56.24;100732.98;103350;1253;108545;-72
2023/06/03 01:42:19;;;;;;;5.40;2.30;;;;;;;6.65;56.10;100735.29;103292;1253;137912;-73
2023/06/03 01:44:48;;;;;;;4.60;1.70;;;;;;;6.58;56.34;100736.02;103417;1257;107423;-72
2023/06/03 01:47:15;;;;;;;6.70;2.10;;;;;;;6.54;56.49;100735.90;103404;1253;96530;-73
2023/06/03 01:49:47;;;;;;;4.80;2.20;;;;;;;6.51;56.74;100736.44;103378;1253;137498;-73
2023/06/03 01:52:35;;;;;;;3.00;1.70;;;;;;;6.47;56.94;100738.71;103412;1257;106871;-73
2023/06/03 01:55:06;;;;;;;4.10;2.10;;;;;;;6.41;56.84;100744.96;103340;1253;137781;-72
2023/06/03 01:57:33;;;;;;;5.10;2.10;;;;;;;6.37;57.09;100744.30;103709;1254;108152;-73
2023/06/03 02:00:06;;;;;;;3.50;1.90;;;;;;;6.32;57.39;100747.45;103241;1257;137963;-73
2023/06/03 02:02:40;;;;;;;3.70;1.60;;;;;;;6.28;57.39;100749.02;103332;1256;109088;-73
2023/06/03 02:05:10;;;;;;;5.90;1.90;;;;;;;6.26;57.52;100751.96;103309;1253;107740;-72
2023/06/03 02:07:41;;;;;;;6.50;2.00;;;;;;;6.22;57.84;100756.31;103228;1257;138309;-72
2023/06/03 02:10:09;;;;;;;3.80;1.60;;;;;;;6.19;57.74;100759.45;103323;1257;109314;-72
2023/06/03 02:12:37;;;;;;;4.40;1.90;;;;;;;6.16;57.95;100760.34;103243;1256;138111;-72
2023/06/03 02:15:13;;;;;;;5.20;1.80;;;;;;;6.13;58.09;100758.29;103328;1252;110059;-72
2023/06/03 02:17:42;;;;;;;2.80;1.70;;;;;;;6.10;58.19;100763.30;103274;1254;107722;-71
2023/06/03 02:20:11;;;;;;;3.30;1.80;;;;;;;6.07;58.32;100767.96;103330;1253;137745;-71
2023/06/03 02:22:42;;;;;;;4.10;1.80;;;;;;;6.04;58.48;100773.17;103383;1252;107125;-71
2023/06/03 02:25:10;;;;;;;3.20;1.60;;;;;;;6.03;58.76;100774.89;103231;1253;137847;-71
2023/06/03 02:27:45;;;;;;;3.80;1.70;;;;;;;6.02;58.84;100778.54;103534;1253;109013;-72
2023/06/03 02:30:33;;;;;;;2.30;1.50;;;;;;;6.01;58.70;100783.02;102747;1260;138983;-71
2023/06/03 02:33:20;;;;;;;3.30;1.80;;;;;;;5.99;58.89;100783.20;102950;1260;96961;-72
2023/06/03 02:35:51;;;;;;;3.80;1.90;;;;;;;5.99;58.91;100785.80;102933;1258;107046;-72
2023/06/03 02:38:22;;;;;;;5.30;1.80;;;;;;;5.97;59.13;100784.95;102906;1257;96482;-71
2023/06/03 02:40:52;;;;;;;6.00;1.70;;;;;;;5.96;59.15;100788.92;102933;1260;110350;-71
2023/06/03 02:43:23;;;;;;;3.90;1.80;;;;;;;5.94;59.38;100792.22;102809;1257;138036;-71
2023/06/03 02:46:00;;;;;;;3.40;1.70;;;;;;;5.94;59.47;100796.20;102930;1257;96473;-72
2023/06/03 02:48:27;;;;;;;4.50;2.00;;;;;;;5.93;59.42;100800.85;102659;1259;137813;-71
2023/06/03 02:50:56;;;;;;;5.30;1.80;;;;;;;5.94;59.62;100798.95;102876;1260;96560;-72
2023/06/03 02:53:23;;;;;;;5.80;1.90;;;;;;;5.95;59.62;100802.91;102850;1257;109903;-71
2023/06/03 02:55:55;;;;;;;5.70;2.00;;;;;;;5.96;59.68;100801.17;102790;1257;138550;-71
2023/06/03 02:58:22;;;;;;;3.30;1.60;;;;;;;5.99;59.82;100803.58;103570;1260;96617;-72
2023/06/03 03:00:50;;;;;;;6.00;1.90;;;;;;;6.01;60.03;100804.94;102873;1257;137709;-71
2023/06/03 03:03:17;;;;;;;5.50;2.10;;;;;;;6.02;59.77;100803.90;103306;1256;96430;-72
2023/06/03 03:05:46;;;;;;;7.00;2.00;;;;;;;6.04;60.09;100798.55;103300;1253;110860;-72
2023/06/03 03:08:13;;;;;;;3.50;1.90;;;;;;;6.05;59.90;100798.02;103178;1253;137648;-72
2023/06/03 03:10:43;;;;;;;4.60;2.10;;;;;;;6.05;60.01;100798.54;103368;1257;96831;-72
2023/06/03 03:13:10;;;;;;;6.50;2.40;;;;;;;6.07;59.94;100799.55;103208;1253;137836;-71
2023/06/03 03:15:38;;;;;;;6.60;2.00;;;;;;;6.09;59.97;100802.65;103463;1256;96471;-72
2023/06/03 03:18:16;;;;;;;5.60;1.80;;;;;;;6.14;60.17;100803.52;103329;1256;137790;-72
2023/06/03 03:20:45;;;;;;;4.40;2.00;;;;;;;6.20;60.12;100804.86;103301;1254;107682;-71
2023/06/03 03:23:25;;;;;;;3.80;1.80;;;;;;;6.22;59.86;100808.98;103346;1254;96420;-72
2023/06/03 03:26:00;;;;;;;4.60;1.80;;;;;;;6.24;59.82;100812.42;103534;1253;137725;-72
2023/06/03 03:28:30;;;;;;;5.60;1.80;;;;;;;6.26;60.05;100814.83;103300;1253;96481;-72
2023/06/03 03:31:00;;;;;;;4.30;1.90;;;;;;;6.29;59.84;100821.39;103278;1257;137850;-72
2023/06/03 03:33:37;;;;;;;3.50;1.80;;;;;;;6.32;59.84;100817.23;103241;1258;107711;-72
2023/06/03 03:36:13;;;;;;;3.00;1.90;;;;;;;6.36;59.88;100817.02;103314;1253;137943;-72
2023/06/03 03:38:43;;;;;;;5.40;1.80;;;;;;;6.43;60.06;100823.02;103306;1253;107958;-72
2023/06/03 03:41:21;;;;;;;3.10;1.80;;;;;;;6.48;60.02;100823.00;103308;1253;95774;-72
2023/06/03 03:44:03;;;;;;;5.10;3.00;;;;;;;6.54;59.68;100829.70;103356;1256;137735;-71
2023/06/03 03:46:35;;;;;;;8.70;2.60;;;;;;;6.57;59.76;100832.27;103292;1253;107273;-71
2023/06/03 03:49:05;;;;;;;7.00;2.80;;;;;;;6.60;59.98;100837.77;103300;1256;137704;-71
2023/06/03 03:51:52;;;;;;;5.10;2.30;;;;;;;6.66;59.85;100839.48;103401;1254;107560;-72
2023/06/03 03:54:24;;;;;;;5.30;2.10;;;;;;;6.71;59.94;100840.82;103273;1253;138006;-71
2023/06/03 03:57:11;;;;;;;6.60;2.60;;;;;;;6.75;59.89;100838.89;103928;1253;110004;-72
2023/06/03 03:59:42;;;;;;;5.20;2.10;;;;;;;6.83;59.85;100843.84;103297;1257;107578;-71
2023/06/03 04:02:10;;;;;;;4.20;1.70;;;;;;;6.90;59.89;100843.45;103220;1257;137596;-71
2023/06/03 04:04:45;;;;;;;5.70;2.30;;;;;;;6.96;59.84;100845.82;103517;1253;107704;-71
2023/06/03 04:07:17;;;;;;;5.50;2.10;;;;;;;7.04;59.78;100848.88;103648;1256;137842;-72
2023/06/03 04:09:45;;;;;;;3.80;2.00;;;;;;;7.11;59.58;100848.11;103429;1253;111065;-72
2023/06/03 04:12:22;;;;;;;4.50;1.90;;;;;;;7.19;59.79;100851.69;103304;1252;138592;-72
2023/06/03 04:14:53;;;;;;;4.00;1.80;;;;;;;7.27;59.67;100852.64;103377;1253;96661;-72
2023/06/03 04:17:25;;;;;;;7.90;1.90;;;;;;;7.36;59.68;100859.48;103351;1253;106507;-72
2023/06/03 04:20:09;;;;;;;4.00;1.90;;;;;;;7.44;59.55;100858.55;103224;1252;138159;-72
2023/06/03 04:22:39;;;;;;;5.00;1.90;;;;;;;7.54;59.42;100863.81;103442;1256;110513;-72
2023/06/03 04:25:11;;;;;;;5.00;1.80;;;;;;;7.61;59.43;100862.70;103266;1253;137882;-72
2023/06/03 04:27:59;;;;;;;6.70;2.00;;;;;;;7.71;59.30;100865.02;103436;1256;96948;-71
2023/06/03 04:30:29;;;;;;;3.70;1.80;;;;;;;7.77;59.08;100862.02;103217;1253;137739;-72
2023/06/03 04:32:59;;;;;;;7.90;2.20;;;;;;;7.85;59.17;100862.79;103464;1253;96420;-72
2023/06/03 04:35:30;;;;;;;4.30;1.90;;;;;;;7.92;58.92;100865.83;103330;1253;109941;-72
2023/06/03 04:38:16;;;;;;;5.30;2.00;;;;;;;8.02;58.83;100865.36;103348;1253;108480;-72
2023/06/03 04:40:46;;;;;;;4.40;2.00;;;;;;;8.13;58.86;100870.44;103399;1253;96817;-71
2023/06/03 04:43:18;;;;;;;9.00;1.90;;;;;;;8.21;58.84;100873.44;103316;1252;137572;-72
2023/06/03 04:45:49;;;;;;;4.80;2.30;;;;;;;8.34;58.78;100875.21;103393;1256;96976;-72
2023/06/03 04:48:17;;;;;;;3.10;1.70;;;;;;;8.44;58.63;100873.70;103370;1256;138496;-72
2023/06/03 04:50:46;;;;;;;4.20;1.90;;;;;;;8.55;58.45;100877.55;103448;1256;107884;-72
2023/06/03 04:53:14;;;;;;;5.30;2.20;;;;;;;8.66;58.41;100882.59;103468;1256;96358;-72
2023/06/03 04:55:44;;;;;;;4.80;1.90;;;;;;;8.77;58.39;100879.83;103325;1253;137679;-72
2023/06/03 04:58:19;;;;;;;6.20;2.30;;;;;;;8.88;58.29;100878.97;103314;1253;96485;-72
2023/06/03 05:00:48;;;;;;;3.30;1.60;;;;;;;8.99;58.19;100875.85;103328;1256;137827;-72
2023/06/03 05:03:17;;;;;;;6.00;2.00;;;;;;;9.12;58.04;100879.98;103360;1255;107611;-72
2023/06/03 05:05:46;;;;;;;3.10;1.90;;;;;;;9.27;57.89;100873.66;103299;1257;96956;-72
2023/06/03 05:08:18;;;;;;;4.70;1.70;;;;;;;9.46;57.79;100880.64;103326;1253;138022;-72
2023/06/03 05:10:46;;;;;;;3.60;1.90;;;;;;;9.63;57.54;100878.05;103714;1252;97064;-72
2023/06/03 05:13:14;;;;;;;4.70;1.80;;;;;;;9.82;57.39;100878.94;103252;1253;137786;-72
2023/06/03 05:15:49;;;;;;;5.50;1.90;;;;;;;10.06;57.04;100881.58;103333;1253;107642;-71
2023/06/03 05:18:19;;;;;;;4.40;2.10;;;;;;;10.34;56.78;100884.00;103339;1253;138131;-71
2023/06/03 05:20:47;;;;;;;4.90;1.70;;;;;;;10.68;56.67;100886.56;103383;1257;108085;-72
2023/06/03 05:23:14;;;;;;;3.10;1.60;;;;;;;11.04;56.06;100889.21;103348;1253;96481;-72
2023/06/03 05:25:50;;;;;;;5.30;1.50;;;;;;;11.36;55.28;100888.77;103314;1252;137316;-73
2023/06/03 05:28:20;;;;;;;4.00;1.60;;;;;;;11.60;54.57;100889.55;103350;1253;108198;-72
2023/06/03 05:30:51;;;;;;;3.20;1.40;;;;;;;11.88;54.36;100888.66;103249;1256;137539;-72
2023/06/03 05:33:30;;;;;;;5.70;1.80;;;;;;;12.18;53.83;100890.63;103327;1253;108290;-72
2023/06/03 05:36:03;;;;;;;3.30;1.50;;;;;;;12.50;53.10;100886.73;103252;1252;137781;-73
2023/06/03 05:38:34;;;;;;;4.40;2.10;;;;;;;12.78;52.26;100888.66;103349;1253;109059;-72
2023/06/03 05:41:04;;;;;;;4.10;1.60;;;;;;;13.00;51.62;100888.98;103218;1252;106922;-73
2023/06/03 05:43:32;;;;;;;5.00;1.70;;;;;;;13.29;51.36;100891.23;103801;1253;137742;-73
2023/06/03 05:46:00;;;;;;;5.90;1.70;;;;;;;13.91;51.28;100888.04;104705;1253;107944;-73
2023/06/03 05:48:28;;;;;;;4.70;1.40;;;;;;;14.97;50.88;100885.77;103217;1257;138042;-73
2023/06/03 05:50:56;;;;;;;4.20;1.30;;;;;;;16.79;49.17;100880.57;103397;1256;110040;-73
2023/06/03 05:53:27;;;;;;;4.40;1.30;;;;;;;19.08;46.14;100875.02;103432;1257;109003;-73
2023/06/03 05:55:56;;;;;;;3.60;1.50;;;;;;;21.31;43.17;100866.68;103220;1253;137466;-73
2023/06/03 05:58:24;;;;;;;3.00;1.20;;;;;;;23.22;40.32;100859.70;103445;1253;108985;-72
2023/06/03 06:00:52;;;;;;;5.80;1.40;;;;;;;24.74;36.96;100860.94;103230;1253;137611;-73
2023/06/03 06:03:20;;;;;;;5.60;1.10;;;;;;;26.03;35.27;100857.84;103387;1253;110126;-73
2023/06/03 06:05:48;;;;;;;6.40;1.30;;;;;;;27.17;33.24;100856.80;103336;1253;107835;-74
2023/06/03 06:08:16;;;;;;;5.40;1.40;;;;;;;28.25;31.81;100857.80;103341;1253;137402;-73
2023/06/03 06:10:43;;;;;;;7.20;1.20;;;;;;;29.30;30.25;100857.95;103421;1253;109074;-74
2023/06/03 06:13:10;;;;;;;3.30;1.30;;;;;;;30.19;28.97;100857.39;103262;1252;140328;-73
2023/06/03 06:15:37;;;;;;;3.60;1.20;;;;;;;31.14;27.58;100854.56;103459;1252;109071;-73
2023/06/03 06:18:05;;;;;;;2.20;1.10;;;;;;;31.94;26.49;100857.67;103163;1257;137718;-74
2023/06/03 06:20:32;;;;;;;4.20;0.90;;;;;;;32.51;25.35;100860.21;103290;1253;96419;-74
2023/06/03 06:23:00;;;;;;;2.80;1.20;;;;;;;32.97;24.81;100864.03;103410;1252;107916;-74
2023/06/03 06:25:27;;;;;;;5.30;1.10;;;;;;;33.46;23.80;100867.33;103210;1257;137400;-75
2023/06/03 06:27:54;;;;;;;2.40;0.90;;;;;;;33.89;22.68;100869.69;103491;1256;101916;-75
2023/06/03 06:30:22;;;;;;;2.80;1.00;;;;;;;34.32;22.72;100866.54;103280;1253;137687;-74
2023/06/03 06:32:52;;;;;;;2.90;0.90;;;;;;;34.81;21.67;100864.80;103518;1253;96459;-74
2023/06/03 06:35:28;;;;;;;1.90;1.00;;;;;;;35.18;20.99;100860.64;103356;1253;100284;-75
2023/06/03 06:37:59;;;;;;;3.40;1.10;;;;;;;35.52;20.59;100862.11;103196;1252;137536;-74
2023/06/03 06:40:34;;;;;;;3.20;1.40;;;;;;;35.75;20.27;100860.96;103329;1253;101274;-73
2023/06/03 06:43:03;;;;;;;;;;;;;;;35.93;19.67;100862.67;103350;1256;137401;-73
2023/06/03 06:45:57;;;;;;;4.90;0.70;;;;;;;36.14;19.31;100862.51;103315;1253;96502;-74
2023/06/03 06:48:24;;;;;;;3.90;1.20;;;;;;;36.38;19.03;100863.00;103841;1252;137747;-74
2023/06/03 06:50:58;;;;;;;1.70;0.90;;;;;;;36.78;18.59;100865.95;103318;1253;97418;-75
2023/06/03 06:53:30;;;;;;;3.20;0.70;;;;;;;37.15;18.18;100868.28;103359;1253;102009;-75
2023/06/03 06:56:03;;;;;;;3.20;0.80;;;;;;;37.45;17.90;100866.76;103251;1252;137406;-75
2023/06/03 06:58:39;;;;;;;4.60;0.70;;;;;;;37.67;17.10;100865.65;103448;1256;96579;-75
2023/06/03 07:01:10;;;;;;;4.10;1.30;;;;;;;37.57;16.76;100870.86;103248;1252;138138;-75
2023/06/03 07:03:41;;;;;;;2.60;0.80;;;;;;;37.45;16.85;100870.65;103457;1256;96437;-74
2023/06/03 07:06:10;;;;;;;2.60;0.70;;;;;;;37.28;16.66;100869.39;103296;1253;137665;-75
2023/06/03 07:08:37;;;;;;;3.40;0.90;;;;;;;36.98;16.54;100864.32;103429;1252;100332;-75
2023/06/03 07:11:06;;;;;;;3.60;1.00;;;;;;;37.09;16.56;100865.80;103332;1253;96492;-74
2023/06/03 07:13:38;;;;;;;1.50;0.70;;;;;;;37.29;16.09;100861.27;103252;1252;138323;-74
2023/06/03 07:16:07;;;;;;;1.90;1.00;;;;;;;37.37;16.16;100859.78;103734;1256;96457;-74
2023/06/03 07:18:35;;;;;;;1.40;1.00;;;;;;;37.54;16.10;100863.45;103272;1253;140895;-74
2023/06/03 07:21:03;;;;;;;3.60;0.90;;;;;;;37.46;15.74;100861.65;103484;1253;99683;-74
2023/06/03 07:23:31;;;;;;;1.90;0.90;;;;;;;37.14;15.68;100859.02;103520;1252;96751;-74
2023/06/03 07:26:00;;;;;;;2.70;0.50;;;;;;;37.05;15.55;100859.28;103249;1253;138917;-73
2023/06/03 07:28:33;;;;;;;2.60;0.70;;;;;;;37.04;15.59;100857.36;103301;1253;96635;-74
2023/06/03 07:31:11;;;;;;;4.40;1.10;;;;;;;37.08;15.38;100857.23;103299;1253;137277;-74
2023/06/03 07:33:51;;;;;;;3.90;0.80;;;;;;;36.99;15.31;100853.48;103366;1253;99988;-77
2023/06/03 07:36:24;;;;;;;2.80;0.70;;;;;;;37.21;15.88;100853.85;103274;1253;137380;-78
2023/06/03 07:39:06;;;;;;;3.70;0.90;;;;;;;37.60;15.72;100857.67;103398;1253;99866;-78
2023/06/03 07:41:40;;;;;;;2.10;1.00;;;;;;;37.90;15.47;100859.98;103293;1253;96448;-77
2023/06/03 07:44:43;;;;;;;5.00;1.90;;;;;;;38.07;15.17;100862.23;103468;1254;102474;-78
2023/06/03 07:47:12;;;;;;;2.80;0.80;;;;;;;37.59;14.86;100856.98;103359;1256;100228;-78
2023/06/03 07:49:44;;;;;;;6.00;1.00;;;;;;;37.01;15.06;100858.39;103303;1253;138911;-78
2023/06/03 07:52:17;;;;;;;2.50;0.90;;;;;;;36.43;15.10;100860.88;103398;1256;100757;-78
2023/06/03 07:54:44;;;;;;;3.30;1.10;;;;;;;36.21;15.25;100859.48;103356;1253;137439;-77
2023/06/03 07:57:11;;;;;;;3.00;0.90;;;;;;;36.41;15.41;100859.67;103388;1253;102322;-78
2023/06/03 07:59:39;;;;;;;2.60;0.90;;;;;;;36.66;14.94;100858.17;103401;1256;99089;-76
2023/06/03 08:02:11;;;;;;;2.50;0.60;;;;;;;36.79;14.92;100863.08;103368;1252;137269;-77
2023/06/03 08:04:39;;;;;;;0.70;0.70;;;;;;;36.84;14.96;100867.03;103202;1253;100326;-78
2023/06/03 08:07:07;;;;;;;4.70;1.10;;;;;;;37.07;14.92;100864.80;103216;1254;137419;-77
2023/06/03 08:09:37;;;;;;;3.30;0.80;;;;;;;37.25;14.76;100866.80;103360;1253;102081;-77
2023/06/03 08:12:08;;;;;;;2.50;0.80;;;;;;;37.51;14.63;100870.16;103179;1256;138208;-77
2023/06/03 08:14:37;;;;;;;1.40;0.50;;;;;;;37.52;14.41;100869.19;103531;1253;96308;-77
2023/06/03 08:17:08;;;;;;;2.30;0.70;;;;;;;37.62;14.37;100870.02;103321;1253;100371;-77
2023/06/03 08:19:36;;;;;;;3.00;0.70;;;;;;;37.64;14.07;100872.23;103453;1252;138140;-77
2023/06/03 08:22:07;;;;;;;1.80;0.80;;;;;;;37.46;14.20;100870.48;103462;1256;102500;-76
2023/06/03 08:24:35;;;;;;;3.00;0.70;;;;;;;37.40;14.30;100867.23;103281;1253;137573;-78
2023/06/03 08:27:02;;;;;;;1.60;0.80;;;;;;;37.57;14.56;100870.98;103362;1253;96535;-75
2023/06/03 08:29:29;;;;;;;1.80;0.80;;;;;;;37.70;14.31;100871.17;103530;1256;100178;-78
2023/06/03 08:31:56;;;;;;;3.50;0.70;;;;;;;37.79;14.17;100871.73;103238;1253;138161;-76
2023/06/03 08:34:23;;;;;;;2.90;0.80;;;;;;;37.66;13.89;100872.98;103418;1256;102417;-76
2023/06/03 08:36:51;;;;;;;4.50;0.70;;;;;;;37.54;13.86;100874.30;103545;1253;137541;-76
2023/06/03 08:39:18;;;;;;;2.70;0.60;;;;;;;37.29;14.09;100876.09;103483;1252;96436;-78
2023/06/03 08:41:48;;;;;;;2.40;0.80;;;;;;;37.32;13.97;100875.88;103301;1253;100292;-78
2023/06/03 08:44:27;;;;;;;1.90;0.60;;;;;;;37.29;13.63;100877.52;103296;1253;137333;-77
2023/06/03 08:47:12;;;;;;;3.20;0.70;;;;;;;36.96;13.10;100872.10;103375;1253;102830;-76
2023/06/03 08:49:48;;;;;;;4.80;0.90;;;;;;;36.36;13.34;100872.34;103237;1255;137529;-75
2023/06/03 08:52:18;;;;;;;2.50;0.60;;;;;;;35.90;13.81;100877.02;103903;1253;96430;-73
2023/06/03 08:54:47;;;;;;;1.00;0.50;;;;;;;35.55;13.97;100873.11;103134;1253;137208;-76
2023/06/03 08:57:19;;;;;;;2.60;0.80;;;;;;;35.31;14.12;100876.54;103350;1255;96579;-71
2023/06/03 08:59:48;;;;;;;3.90;0.70;;;;;;;35.12;14.40;100872.45;103323;1256;102420;-78
2023/06/03 09:02:16;;;;;;;2.40;0.80;;;;;;;35.00;14.61;100873.83;103254;1256;137411;-77
2023/06/03 09:04:45;;;;;;;1.50;0.80;;;;;;;34.91;14.62;100872.03;103445;1253;96417;-77
2023/06/03 09:07:12;;;;;;;8.60;1.80;;;;;;;34.78;14.20;100872.90;103265;1252;137229;-77
2023/06/03 09:09:41;;;;;;;5.50;1.60;;;;;;;34.59;14.37;100876.05;103446;1256;96433;-78
2023/06/03 09:12:09;;;;;;;2.30;0.80;;;;;;;34.48;14.74;100877.55;103308;1253;138056;-78
2023/06/03 09:14:38;;;;;;;3.70;0.90;;;;;;;34.28;14.41;100878.27;103451;1253;100618;-77
2023/06/03 09:17:05;;;;;;;5.00;1.40;;;;;;;33.86;14.37;100880.30;103421;1252;96303;-77
2023/06/03 09:19:34;;;;;;;3.00;0.90;;;;;;;33.49;14.76;100879.90;103269;1257;137232;-76
2023/06/03 09:22:03;;;;;;;4.40;1.40;;;;;;;33.32;15.02;100882.20;103409;1256;96453;-77
2023/06/03 09:24:30;;;;;;;1.50;0.70;;;;;;;33.24;15.16;100879.08;103308;1256;137814;-77
2023/06/03 09:26:58;;;;;;;6.10;1.20;;;;;;;33.08;14.99;100871.73;103308;1253;100580;-77
2023/06/03 09:29:26;;;;;;;5.20;1.30;;;;;;;32.91;14.94;100868.98;103335;1253;96568;-78
2023/06/03 09:31:54;;;;;;;5.60;1.60;;;;;;;32.66;15.11;100873.14;103265;1253;137299;-77
2023/06/03 09:34:22;;;;;;;4.00;1.00;;;;;;;32.53;15.21;100873.67;103382;1256;96552;-76
2023/06/03 09:36:50;;;;;;;4.30;0.70;;;;;;;32.35;15.14;100876.21;103166;1256;137608;-76
2023/06/03 09:39:32;;;;;;;6.80;1.20;;;;;;;32.05;15.42;100874.11;103354;1250;105791;-78
2023/06/03 09:41:59;;;;;;;8.40;1.20;;;;;;;32.03;15.55;100872.91;103425;1255;96427;-78
2023/06/03 09:44:37;;;;;;;8.30;1.50;;;;;;;32.18;16.19;100876.86;103274;1250;107614;-79
2023/06/03 09:47:05;;;;;;;2.60;0.90;;;;;;;32.50;16.27;100875.61;103156;1250;96849;-79
2023/06/03 09:49:34;;;;;;;3.30;0.70;;;;;;;32.76;15.98;100875.67;103301;1253;137280;-79
2023/06/03 09:52:33;;;;;;;2.50;0.90;;;;;;;32.93;15.80;100874.95;103272;1251;107350;-79
2023/06/03 09:55:04;;;;;;;1.70;0.70;;;;;;;32.92;15.53;100873.63;103211;1250;137681;-78
2023/06/03 09:57:33;;;;;;;1.90;0.90;;;;;;;32.63;14.79;100874.95;103282;1251;109629;-78
2023/06/03 10:00:10;;;;;;;0.90;0.50;;;;;;;32.04;14.85;100874.85;103308;1251;96542;-76
2023/06/03 10:02:40;;;;;;;2.20;0.50;;;;;;;31.45;15.24;100874.89;103715;1255;109750;-77
2023/06/03 10:05:27;;;;;;;3.90;1.30;;;;;;;30.84;15.47;100876.80;103473;1253;108784;-76
2023/06/03 10:07:55;;;;;;;2.10;0.60;;;;;;;30.34;15.63;100875.66;103479;1256;137447;-76
2023/06/03 10:10:24;;;;;;;3.40;1.00;;;;;;;29.86;15.83;100880.70;103417;1251;108010;-76
2023/06/03 10:12:53;;;;;;;5.50;0.90;;;;;;;29.52;16.16;100880.45;103122;1256;137354;-75
2023/06/03 10:15:37;;;;;;;6.30;4.10;;;;;;;29.16;16.32;100875.72;103238;1251;110723;-76
2023/06/03 10:18:05;;;;;;;2.70;0.70;;;;;;;29.00;17.47;100874.84;103340;1250;107385;-75
2023/06/03 10:20:40;;;;;;;2.80;0.50;;;;;;;29.22;17.66;100878.23;103635;1251;96424;-75
2023/06/03 10:23:09;;;;;;;3.50;0.60;;;;;;;29.49;17.68;100879.15;103299;1250;107477;-76
2023/06/03 10:25:42;;;;;;;3.70;0.90;;;;;;;29.68;17.52;100873.05;103306;1250;138104;-76
2023/06/03 10:28:10;;;;;;;1.30;0.60;;;;;;;29.69;17.32;100872.05;103363;1250;109951;-74
2023/06/03 10:30:39;;;;;;;2.70;0.70;;;;;;;29.51;17.19;100875.91;103251;1251;137857;-75
2023/06/03 10:33:08;;;;;;;2.00;0.50;;;;;;;29.31;17.25;100871.66;103439;1255;96507;-78
2023/06/03 10:35:37;;;;;;;1.40;0.80;;;;;;;29.08;17.09;100869.55;103454;1251;107686;-77
2023/06/03 10:38:06;;;;;;;3.10;0.60;;;;;;;28.68;17.34;100866.27;103273;1253;137512;-75
2023/06/03 10:40:34;;;;;;;1.90;0.80;;;;;;;28.32;17.61;100865.33;103353;1251;109784;-75
2023/06/03 10:43:02;;;;;;;2.90;0.70;;;;;;;28.06;17.98;100867.33;103224;1251;137454;-75
2023/06/03 10:45:31;;;;;;;3.40;0.90;;;;;;;27.96;18.04;100864.33;103419;1255;96447;-77
2023/06/03 10:48:03;;;;;;;2.20;0.80;;;;;;;27.91;18.27;100866.80;103340;1251;107729;-76
2023/06/03 10:50:39;;;;;;;;;;;;;;;27.71;18.16;100864.38;104492;1250;94684;-74
2023/06/03 10:53:17;;;;;;;3.20;0.90;;;;;;;27.22;18.06;100854.49;103760;1253;111346;-74
2023/06/03 10:56:05;;;;;;;6.40;0.80;;;;;;;26.87;18.79;100857.02;103106;1251;137577;-74
2023/06/03 10:58:33;;;;;;;3.60;0.80;;;;;;;26.54;18.75;100848.25;103311;1251;96463;-74
2023/06/03 11:01:02;;;;;;;3.60;0.90;;;;;;;26.21;19.05;100850.02;103116;1256;137223;-74
2023/06/03 11:03:31;;;;;;;4.50;0.80;;;;;;;25.99;19.13;100842.95;103371;1256;96313;-73
2023/06/03 11:06:37;;;;;;;2.80;1.30;;;;;;;25.72;19.25;100847.58;103393;1253;109703;-74
2023/06/03 11:09:07;;;;;;;4.80;1.50;;;;;;;25.26;19.58;100849.90;103296;1256;107536;-73
2023/06/03 11:12:13;;;;;;;6.50;0.90;;;;;;;25.06;20.07;100854.77;103293;1251;96553;-75
2023/06/03 11:14:57;;;;;;;1.20;0.50;;;;;;;25.00;20.33;100854.40;103399;1253;107976;-75
2023/06/03 11:17:28;;;;;;;7.10;1.30;;;;;;;24.96;20.30;100848.23;103363;1255;96521;-75
2023/06/03 11:19:57;;;;;;;1.80;0.70;;;;;;;24.87;20.43;100846.38;103276;1256;137344;-75
2023/06/03 11:22:43;;;;;;;4.50;0.50;;;;;;;24.71;20.33;100848.95;103577;1250;106937;-76
2023/06/03 11:25:26;;;;;;;2.50;0.90;;;;;;;24.56;20.43;100851.04;103128;1250;137602;-74
2023/06/03 11:27:53;;;;;;;1.60;0.70;;;;;;;24.54;20.65;100849.39;103258;1253;108404;-75
2023/06/03 11:30:21;;;;;;;4.50;0.60;;;;;;;24.52;20.50;100849.03;103166;1250;137641;-75
2023/06/03 11:33:12;;;;;;;2.50;0.70;;;;;;;24.37;20.37;100842.63;103370;1256;109518;-76
2023/06/03 11:35:39;;;;;;;1.90;0.40;;;;;;;24.20;20.31;100843.98;103300;1256;107679;-75
2023/06/03 11:38:07;;;;;;;1.20;0.60;;;;;;;24.10;20.69;100843.34;103301;1251;137623;-76